Time;durP1;ratioP1;P1;durP2;ratioP2;P2;SDS_P1;SDS_P2;PMS_P1;PMS_P2;Temp;Humidity;BMP_temperature;BMP_pressure;BME280_temperature;BME280_humidity;BME280_pressure;Samples;Min_cycle;Max_cycle;Signal;HPM_P1;HPM_P2
2022/02/22 00:01:20;;;;;;;7.78;1.35;;;;;;;;;;6216444;23;20157;-62
2022/02/22 00:03:46;;;;;;;4.45;1.27;;;;;;;;;;6216390;23;20580;-62
2022/02/22 00:06:12;;;;;;;3.72;1.10;;;;;;;;;;6216582;23;20155;-62
2022/02/22 00:08:38;;;;;;;5.78;1.35;;;;;;;;;;6216561;23;20163;-63
2022/02/22 00:11:04;;;;;;;12.43;1.95;;;;;;;;;;6216702;23;20180;-63
2022/02/22 00:13:30;;;;;;;8.23;1.67;;;;;;;;;;6215364;23;20176;-64
2022/02/22 00:15:59;;;;;;;9.60;1.65;;;;;;;;;;6216709;23;20141;-64
2022/02/22 00:18:25;;;;;;;8.02;1.30;;;;;;;;;;6216719;23;20172;-63
2022/02/22 00:20:51;;;;;;;8.80;1.65;;;;;;;;;;6216543;23;20187;-64
2022/02/22 00:23:17;;;;;;;6.28;1.65;;;;;;;;;;6216446;23;20565;-64
2022/02/22 00:25:43;;;;;;;10.63;1.63;;;;;;;;;;6216447;23;20549;-64
2022/02/22 00:28:09;;;;;;;7.10;1.30;;;;;;;;;;6216732;23;20171;-64
2022/02/22 00:30:35;;;;;;;6.50;1.42;;;;;;;;;;6216393;23;20210;-64
2022/02/22 00:33:01;;;;;;;3.72;1.17;;;;;;;;;;6216461;23;20145;-64
2022/02/22 00:35:27;;;;;;;7.70;1.52;;;;;;;;;;6216697;23;20203;-64
2022/02/22 00:37:53;;;;;;;9.13;1.75;;;;;;;;;;6216295;23;20476;-64
2022/02/22 00:40:19;;;;;;;5.85;1.00;;;;;;;;;;6216375;23;20141;-63
2022/02/22 00:42:45;;;;;;;11.75;1.75;;;;;;;;;;6216632;23;20137;-63
2022/02/22 00:45:11;;;;;;;7.00;1.15;;;;;;;;;;6216348;23;20540;-63
2022/02/22 00:47:38;;;;;;;5.85;1.00;;;;;;;;;;6216493;23;20546;-64
2022/02/22 00:50:05;;;;;;;11.18;1.45;;;;;;;;;;6216263;23;20152;-63
2022/02/22 00:52:31;;;;;;;13.75;1.98;;;;;;;;;;6216962;23;20226;-63
2022/02/22 00:54:56;;;;;;;12.07;1.73;;;;;;;;;;6217090;23;20596;-64
2022/02/22 00:57:22;;;;;;;10.55;1.92;;;;;;;;;;6216381;23;20151;-64
2022/02/22 00:59:48;;;;;;;6.00;1.60;;;;;;;;;;6216170;23;20546;-64
2022/02/22 01:02:14;;;;;;;12.00;1.75;;;;;;;;;;6216428;23;20148;-63
2022/02/22 01:04:40;;;;;;;16.77;2.38;;;;;;;;;;6216604;23;20172;-63
2022/02/22 01:07:06;;;;;;;15.63;3.17;;;;;;;;;;6216726;23;20166;-64
2022/02/22 01:09:32;;;;;;;15.77;2.80;;;;;;;;;;6215935;23;20168;-64
2022/02/22 01:11:58;;;;;;;18.88;3.00;;;;;;;;;;6216243;23;20176;-63
2022/02/22 01:14:24;;;;;;;13.73;3.00;;;;;;;;;;6216223;23;20215;-63
2022/02/22 01:16:50;;;;;;;14.65;3.15;;;;;;;;;;6216547;23;20180;-63
2022/02/22 01:19:16;;;;;;;17.27;3.28;;;;;;;;;;6216436;23;20208;-63
2022/02/22 01:21:42;;;;;;;21.52;3.80;;;;;;;;;;6216468;23;20141;-63
2022/02/22 01:24:10;;;;;;;16.83;3.38;;;;;;;;;;6216806;23;20152;-63
2022/02/22 01:26:36;;;;;;;18.70;3.83;;;;;;;;;;6216909;23;20137;-64
2022/02/22 01:29:02;;;;;;;20.42;3.67;;;;;;;;;;6217315;23;20145;-64
2022/02/22 01:31:28;;;;;;;20.75;4.57;;;;;;;;;;6217010;23;20251;-63
2022/02/22 01:33:55;;;;;;;25.90;4.22;;;;;;;;;;6216478;23;20461;-63
2022/02/22 01:36:24;;;;;;;21.45;4.10;;;;;;;;;;6216217;23;20152;-63
2022/02/22 01:38:51;;;;;;;22.90;3.95;;;;;;;;;;6215862;23;20173;-63
2022/02/22 01:41:17;;;;;;;20.88;3.50;;;;;;;;;;6216061;23;20458;-63
2022/02/22 01:43:43;;;;;;;16.13;3.88;;;;;;;;;;6216061;23;20499;-63
2022/02/22 01:46:09;;;;;;;15.95;3.35;;;;;;;;;;6216118;23;20137;-62
2022/02/22 01:48:35;;;;;;;17.15;3.47;;;;;;;;;;6216123;23;20149;-63
2022/02/22 01:51:01;;;;;;;16.38;3.22;;;;;;;;;;6216242;23;20156;-63
2022/02/22 01:53:27;;;;;;;18.05;3.28;;;;;;;;;;6216323;23;20145;-63
2022/02/22 01:55:53;;;;;;;17.40;3.17;;;;;;;;;;6216100;23;20203;-63
2022/02/22 01:58:19;;;;;;;14.18;2.80;;;;;;;;;;6215948;23;20230;-63
2022/02/22 02:00:46;;;;;;;15.57;3.10;;;;;;;;;;6215948;23;20477;-63
2022/02/22 02:03:15;;;;;;;18.35;3.47;;;;;;;;;;6216456;23;20152;-63
2022/02/22 02:05:41;;;;;;;14.68;2.60;;;;;;;;;;6215738;23;20554;-64
2022/02/22 02:08:06;;;;;;;14.20;3.28;;;;;;;;;;6216041;23;20220;-63
2022/02/22 02:10:32;;;;;;;15.20;2.78;;;;;;;;;;6215909;23;20141;-64
2022/02/22 02:12:58;;;;;;;9.35;2.58;;;;;;;;;;6215782;23;20138;-64
2022/02/22 02:15:24;;;;;;;12.55;3.20;;;;;;;;;;6217157;23;20141;-64
2022/02/22 02:17:50;;;;;;;17.88;2.95;;;;;;;;;;6215910;23;20172;-64
2022/02/22 02:20:16;;;;;;;18.92;3.33;;;;;;;;;;6217061;23;20216;-64
2022/02/22 02:22:43;;;;;;;12.05;2.70;;;;;;;;;;6217906;23;20141;-63
2022/02/22 02:25:09;;;;;;;13.38;2.83;;;;;;;;;;6217956;23;20224;-63
2022/02/22 02:27:35;;;;;;;11.40;2.45;;;;;;;;;;6217766;23;20145;-63
2022/02/22 02:30:01;;;;;;;10.52;2.30;;;;;;;;;;6217815;23;20219;-64
2022/02/22 02:32:28;;;;;;;18.35;2.75;;;;;;;;;;6217748;23;20569;-64
2022/02/22 02:34:53;;;;;;;12.55;3.08;;;;;;;;;;6218647;23;20144;-63
2022/02/22 02:37:19;;;;;;;11.43;2.53;;;;;;;;;;6218246;23;20224;-64
2022/02/22 02:39:45;;;;;;;12.48;2.10;;;;;;;;;;6217382;23;20168;-63
2022/02/22 02:42:12;;;;;;;18.00;2.50;;;;;;;;;;6217692;23;20221;-63
2022/02/22 02:44:38;;;;;;;14.75;2.78;;;;;;;;;;6217890;23;20160;-63
2022/02/22 02:47:07;;;;;;;15.25;2.85;;;;;;;;;;6217513;23;20148;-64
2022/02/22 02:49:33;;;;;;;11.70;2.45;;;;;;;;;;6217660;23;20219;-63
2022/02/22 02:51:59;;;;;;;24.88;3.58;;;;;;;;;;6217947;23;20149;-64
2022/02/22 02:54:25;;;;;;;20.30;2.92;;;;;;;;;;6217924;23;20149;-64
2022/02/22 02:56:51;;;;;;;11.02;2.08;;;;;;;;;;6217617;23;20545;-64
2022/02/22 02:59:17;;;;;;;10.60;2.03;;;;;;;;;;6215992;23;20168;-64
2022/02/22 03:01:43;;;;;;;8.90;2.80;;;;;;;;;;6217259;23;20167;-64
2022/02/22 03:04:09;;;;;;;16.10;2.60;;;;;;;;;;6217251;23;20137;-64
2022/02/22 03:06:35;;;;;;;14.25;2.75;;;;;;;;;;6217512;23;20448;-64
2022/02/22 03:09:02;;;;;;;12.93;2.83;;;;;;;;;;6217384;23;20165;-64
2022/02/22 03:11:27;;;;;;;9.27;2.45;;;;;;;;;;6217425;23;20145;-64
2022/02/22 03:13:53;;;;;;;14.00;2.58;;;;;;;;;;6218018;23;20500;-64
2022/02/22 03:16:19;;;;;;;12.23;2.42;;;;;;;;;;6217396;23;20216;-64
2022/02/22 03:18:45;;;;;;;15.98;2.85;;;;;;;;;;6217537;23;20259;-64
2022/02/22 03:21:12;;;;;;;10.00;2.40;;;;;;;;;;6217942;23;20142;-64
2022/02/22 03:23:38;;;;;;;15.85;2.63;;;;;;;;;;6218365;23;20580;-64
2022/02/22 03:26:04;;;;;;;13.40;2.03;;;;;;;;;;6218525;23;20438;-64
2022/02/22 03:28:31;;;;;;;13.82;2.35;;;;;;;;;;6218605;23;20145;-64
2022/02/22 03:30:57;;;;;;;13.23;2.22;;;;;;;;;;6217631;23;20157;-64
2022/02/22 03:33:24;;;;;;;8.32;1.90;;;;;;;;;;6218118;23;20187;-64
2022/02/22 03:35:50;;;;;;;11.85;2.22;;;;;;;;;;6218416;23;20145;-64
2022/02/22 03:38:16;;;;;;;10.45;2.10;;;;;;;;;;6218524;23;20149;-64
2022/02/22 03:40:42;;;;;;;11.07;2.47;;;;;;;;;;6217565;23;20169;-63
2022/02/22 03:43:08;;;;;;;11.48;2.05;;;;;;;;;;6217348;23;20141;-64
2022/02/22 03:45:34;;;;;;;14.10;2.35;;;;;;;;;;6216913;23;20276;-63
2022/02/22 03:48:00;;;;;;;9.70;2.35;;;;;;;;;;6217398;23;20148;-63
2022/02/22 03:50:26;;;;;;;11.52;2.55;;;;;;;;;;6217125;23;20144;-64
2022/02/22 03:52:53;;;;;;;8.90;1.73;;;;;;;;;;6217432;23;20438;-63
2022/02/22 03:55:19;;;;;;;10.77;2.10;;;;;;;;;;6217441;23;20399;-63
2022/02/22 03:57:45;;;;;;;14.15;2.60;;;;;;;;;;6216763;23;20149;-64
2022/02/22 04:00:13;;;;;;;12.80;2.28;;;;;;;;;;6216749;23;20214;-63
2022/02/22 04:02:39;;;;;;;11.90;2.65;;;;;;;;;;6216896;23;20137;-63
2022/02/22 04:05:05;;;;;;;12.02;2.20;;;;;;;;;;6217152;23;20379;-64
2022/02/22 04:07:36;;;;;;;12.40;2.13;;;;;;;;;;6216984;23;20141;-64
2022/02/22 04:10:03;;;;;;;13.63;2.15;;;;;;;;;;6216675;23;20152;-64
2022/02/22 04:12:29;;;;;;;16.23;2.53;;;;;;;;;;6216868;23;20216;-64
2022/02/22 04:14:54;;;;;;;12.00;2.30;;;;;;;;;;6217105;23;20184;-64
2022/02/22 04:17:20;;;;;;;12.32;1.83;;;;;;;;;;6216521;23;20183;-64
2022/02/22 04:19:48;;;;;;;19.25;2.50;;;;;;;;;;6216835;23;20183;-64
2022/02/22 04:22:14;;;;;;;11.77;3.20;;;;;;;;;;6216515;23;20573;-64
2022/02/22 04:24:40;;;;;;;11.05;2.30;;;;;;;;;;6216515;23;20141;-64
2022/02/22 04:27:06;;;;;;;8.55;2.33;;;;;;;;;;6216358;23;20568;-63
2022/02/22 04:29:32;;;;;;;8.70;2.05;;;;;;;;;;6216490;23;20469;-64
2022/02/22 04:32:00;;;;;;;12.98;2.78;;;;;;;;;;6216415;23;20164;-63
2022/02/22 04:34:26;;;;;;;18.55;2.88;;;;;;;;;;6216181;23;20579;-63
2022/02/22 04:36:52;;;;;;;14.35;2.83;;;;;;;;;;6216408;23;20137;-63
2022/02/22 04:39:18;;;;;;;9.63;2.30;;;;;;;;;;6216210;23;20279;-63
2022/02/22 04:41:46;;;;;;;13.32;2.30;;;;;;;;;;6216509;23;20169;-63
2022/02/22 04:44:11;;;;;;;12.32;2.35;;;;;;;;;;6215991;23;20136;-63
2022/02/22 04:46:38;;;;;;;12.30;2.50;;;;;;;;;;6216394;23;20198;-62
2022/02/22 04:49:08;;;;;;;13.73;2.97;;;;;;;;;;6216634;23;20459;-63
2022/02/22 04:51:34;;;;;;;15.13;2.90;;;;;;;;;;6216671;23;20125;-62
2022/02/22 04:54:00;;;;;;;12.23;1.73;;;;;;;;;;6216617;23;20561;-64
2022/02/22 04:56:26;;;;;;;15.98;3.58;;;;;;;;;;6216402;23;20145;-62
2022/02/22 04:58:52;;;;;;;22.52;3.03;;;;;;;;;;6216446;23;20192;-64
2022/02/22 05:01:18;;;;;;;12.63;2.45;;;;;;;;;;6216231;23;20604;-64
2022/02/22 05:03:44;;;;;;;12.88;2.17;;;;;;;;;;6216446;23;20224;-64
2022/02/22 05:06:10;;;;;;;15.80;2.55;;;;;;;;;;6216518;23;20156;-64
2022/02/22 05:08:36;;;;;;;15.07;2.80;;;;;;;;;;6216567;23;20141;-64
2022/02/22 05:11:02;;;;;;;12.70;2.47;;;;;;;;;;6216251;23;20163;-63
2022/02/22 05:16:32;;;;;;;16.88;3.33;;;;;;;;;;6216176;23;20520;-63
2022/02/22 05:18:59;;;;;;;13.02;2.50;;;;;;;;;;6216789;23;20195;-64
2022/02/22 05:21:25;;;;;;;11.73;2.55;;;;;;;;;;6216490;23;20140;-64
2022/02/22 05:23:51;;;;;;;15.18;3.65;;;;;;;;;;6226729;23;20168;-64
2022/02/22 05:26:17;;;;;;;10.38;2.03;;;;;;;;;;6216548;23;20145;-64
2022/02/22 05:28:46;;;;;;;14.30;2.70;;;;;;;;;;6216117;23;20473;-64
2022/02/22 05:31:16;;;;;;;21.48;2.83;;;;;;;;;;6216191;23;20189;-64
2022/02/22 05:33:42;;;;;;;13.40;2.90;;;;;;;;;;6216407;23;20161;-64
2022/02/22 05:36:08;;;;;;;16.42;2.50;;;;;;;;;;6216146;23;20550;-64
2022/02/22 05:38:34;;;;;;;10.23;2.15;;;;;;;;;;6215853;23;20164;-64
2022/02/22 05:41:00;;;;;;;18.17;2.95;;;;;;;;;;6216205;23;20137;-64
2022/02/22 05:43:26;;;;;;;12.80;2.05;;;;;;;;;;6215945;23;20145;-63
2022/02/22 05:45:52;;;;;;;11.32;2.60;;;;;;;;;;6216172;23;20141;-63
2022/02/22 05:48:18;;;;;;;14.77;2.50;;;;;;;;;;6215813;23;20144;-63
2022/02/22 05:50:44;;;;;;;13.68;2.50;;;;;;;;;;6216033;23;20582;-63
2022/02/22 05:53:10;;;;;;;10.63;2.38;;;;;;;;;;6216183;23;20137;-63
2022/02/22 05:55:37;;;;;;;10.32;3.17;;;;;;;;;;6217818;23;20187;-63
2022/02/22 05:58:03;;;;;;;15.20;2.92;;;;;;;;;;6218054;23;20550;-63
2022/02/22 06:00:29;;;;;;;16.50;2.85;;;;;;;;;;6218825;23;20271;-64
2022/02/22 06:02:55;;;;;;;17.73;3.17;;;;;;;;;;6218519;23;20338;-64
2022/02/22 06:05:21;;;;;;;15.05;2.42;;;;;;;;;;6218719;23;20184;-64
2022/02/22 06:07:47;;;;;;;17.73;2.70;;;;;;;;;;6218794;23;20537;-64
2022/02/22 06:10:14;;;;;;;12.55;2.55;;;;;;;;;;6219101;23;20137;-63
2022/02/22 06:12:40;;;;;;;12.30;2.72;;;;;;;;;;6218712;23;20157;-63
2022/02/22 06:15:06;;;;;;;9.75;2.17;;;;;;;;;;6218351;23;20141;-63
2022/02/22 06:17:39;;;;;;;11.88;2.03;;;;;;;;;;6216704;23;20360;-63
2022/02/22 06:20:06;;;;;;;7.53;1.55;;;;;;;;;;6218049;23;20250;-63
2022/02/22 06:22:31;;;;;;;8.07;1.75;;;;;;;;;;6217770;23;20140;-64
2022/02/22 06:24:57;;;;;;;12.95;1.90;;;;;;;;;;6217920;23;20141;-64
2022/02/22 06:27:23;;;;;;;9.57;1.38;;;;;;;;;;6218761;23;20152;-63
2022/02/22 06:29:49;;;;;;;3.47;1.60;;;;;;;;;;6218101;23;20183;-63
2022/02/22 06:32:15;;;;;;;9.57;1.30;;;;;;;;;;6217618;23;20188;-63
2022/02/22 06:34:42;;;;;;;3.80;0.85;;;;;;;;;;6217604;23;20160;-63
2022/02/22 06:37:08;;;;;;;3.20;1.05;;;;;;;;;;6216560;23;20141;-63
2022/02/22 06:39:35;;;;;;;5.30;1.15;;;;;;;;;;6217645;23;20231;-64
2022/02/22 06:42:01;;;;;;;1.38;0.73;;;;;;;;;;6217933;23;20555;-64
2022/02/22 06:44:27;;;;;;;1.80;0.80;;;;;;;;;;6217427;23;20195;-63
2022/02/22 06:46:53;;;;;;;1.55;0.77;;;;;;;;;;6217850;23;20228;-63
2022/02/22 06:49:19;;;;;;;3.83;0.85;;;;;;;;;;6217389;23;20179;-63
2022/02/22 06:51:45;;;;;;;2.92;0.93;;;;;;;;;;6217684;23;20183;-63
2022/02/22 06:54:10;;;;;;;4.40;0.80;;;;;;;;;;6217811;23;20640;-63
2022/02/22 06:56:36;;;;;;;2.70;0.80;;;;;;;;;;6217336;23;20145;-63
2022/02/22 06:59:02;;;;;;;3.92;0.80;;;;;;;;;;6217218;23;20376;-64
2022/02/22 07:01:28;;;;;;;5.43;1.52;;;;;;;;;;6217570;23;20145;-63
2022/02/22 07:03:54;;;;;;;4.05;0.85;;;;;;;;;;6217298;23;20203;-63
2022/02/22 07:06:20;;;;;;;2.88;0.70;;;;;;;;;;6216922;23;20620;-64
2022/02/22 07:08:46;;;;;;;3.15;1.05;;;;;;;;;;6217305;23;20149;-64
2022/02/22 07:11:12;;;;;;;1.80;0.80;;;;;;;;;;6217130;23;20145;-63
2022/02/22 07:13:38;;;;;;;5.53;0.90;;;;;;;;;;6217162;23;20141;-63
2022/02/22 07:16:04;;;;;;;2.13;0.60;;;;;;;;;;6217756;23;20152;-63
2022/02/22 07:18:30;;;;;;;4.10;0.80;;;;;;;;;;6217078;23;20267;-63
2022/02/22 07:20:56;;;;;;;1.70;0.70;;;;;;;;;;6217614;23;20145;-63
2022/02/22 07:23:22;;;;;;;2.00;0.52;;;;;;;;;;6217087;23;20137;-63
2022/02/22 07:25:48;;;;;;;2.83;0.60;;;;;;;;;;6217035;23;20607;-64
2022/02/22 07:28:13;;;;;;;2.00;0.70;;;;;;;;;;6217130;23;20168;-63
2022/02/22 07:30:40;;;;;;;3.60;0.90;;;;;;;;;;6217247;23;20492;-64
2022/02/22 07:33:06;;;;;;;2.22;0.60;;;;;;;;;;6217023;23;20468;-64
2022/02/22 07:35:32;;;;;;;2.58;0.70;;;;;;;;;;6217423;23;20137;-64
2022/02/22 07:37:58;;;;;;;5.03;0.93;;;;;;;;;;6217136;23;20161;-63
2022/02/22 07:40:25;;;;;;;1.40;0.70;;;;;;;;;;6217294;23;20364;-65
2022/02/22 07:42:51;;;;;;;1.60;0.60;;;;;;;;;;6216972;23;20137;-63
2022/02/22 07:45:17;;;;;;;2.70;0.70;;;;;;;;;;6216848;23;20216;-63
2022/02/22 07:47:43;;;;;;;4.72;0.60;;;;;;;;;;6218515;23;20218;-63
2022/02/22 07:50:10;;;;;;;3.10;0.70;;;;;;;;;;6217348;23;20504;-63
2022/02/22 07:52:36;;;;;;;2.17;0.70;;;;;;;;;;6216922;23;20145;-64
2022/02/22 07:55:04;;;;;;;2.40;0.45;;;;;;;;;;6216734;23;20148;-64
2022/02/22 07:57:30;;;;;;;3.00;0.52;;;;;;;;;;6217084;23;20437;-64
2022/02/22 07:59:56;;;;;;;1.27;0.55;;;;;;;;;;6216741;23;20667;-63
2022/02/22 08:02:22;;;;;;;2.22;0.47;;;;;;;;;;6216830;23;20504;-64
2022/02/22 08:04:48;;;;;;;1.45;0.57;;;;;;;;;;6217203;23;20141;-63
2022/02/22 08:07:16;;;;;;;2.97;0.77;;;;;;;;;;6216901;23;20160;-63
2022/02/22 08:09:43;;;;;;;2.17;0.80;;;;;;;;;;6216771;23;20141;-63
2022/02/22 08:12:09;;;;;;;1.05;0.57;;;;;;;;;;6217763;23;20149;-63
2022/02/22 08:14:35;;;;;;;5.30;0.70;;;;;;;;;;6217102;23;20230;-63
2022/02/22 08:17:01;;;;;;;3.78;0.50;;;;;;;;;;6216899;23;20550;-63
2022/02/22 08:19:27;;;;;;;1.25;0.40;;;;;;;;;;6216585;23;20169;-63
2022/02/22 08:21:53;;;;;;;1.20;0.40;;;;;;;;;;6216897;23;20141;-63
2022/02/22 08:24:21;;;;;;;2.20;0.63;;;;;;;;;;6217018;23;20144;-63
2022/02/22 08:26:47;;;;;;;1.75;0.50;;;;;;;;;;6216992;23;20204;-63
2022/02/22 08:29:13;;;;;;;2.83;0.63;;;;;;;;;;6216542;23;20145;-63
2022/02/22 08:31:39;;;;;;;0.63;0.47;;;;;;;;;;6217248;23;20167;-62
2022/02/22 08:34:05;;;;;;;1.90;0.47;;;;;;;;;;6216580;23;20153;-64
2022/02/22 08:36:31;;;;;;;3.00;0.82;;;;;;;;;;6216999;23;20157;-63
2022/02/22 08:38:59;;;;;;;2.53;0.60;;;;;;;;;;6216522;23;20172;-64
2022/02/22 08:41:24;;;;;;;2.05;0.60;;;;;;;;;;6216669;23;20137;-64
2022/02/22 08:43:51;;;;;;;2.08;0.82;;;;;;;;;;6216385;23;20141;-64
2022/02/22 08:46:17;;;;;;;3.08;0.73;;;;;;;;;;6216566;23;20141;-63
2022/02/22 08:48:43;;;;;;;2.22;0.70;;;;;;;;;;6216592;23;20612;-64
2022/02/22 08:51:09;;;;;;;2.47;0.60;;;;;;;;;;6216439;23;20175;-64
2022/02/22 08:53:35;;;;;;;2.38;0.80;;;;;;;;;;6216489;23;20557;-63
2022/02/22 08:56:02;;;;;;;1.85;0.50;;;;;;;;;;6216644;23;20141;-64
2022/02/22 08:58:28;;;;;;;3.05;0.80;;;;;;;;;;6216605;23;20231;-63
2022/02/22 09:00:54;;;;;;;1.48;0.50;;;;;;;;;;6216380;23;20145;-63
2022/02/22 09:03:20;;;;;;;2.08;0.70;;;;;;;;;;6216771;23;20137;-63
2022/02/22 09:05:45;;;;;;;3.63;1.15;;;;;;;;;;6216271;23;20168;-63
2022/02/22 09:08:11;;;;;;;3.60;0.60;;;;;;;;;;6216804;23;20141;-63
2022/02/22 09:10:39;;;;;;;5.43;0.90;;;;;;;;;;6216457;23;20200;-63
2022/02/22 09:13:05;;;;;;;4.38;0.70;;;;;;;;;;6217077;23;20433;-62
2022/02/22 09:15:31;;;;;;;5.22;0.90;;;;;;;;;;6216232;23;20141;-63
2022/02/22 09:17:57;;;;;;;2.05;1.13;;;;;;;;;;6216206;23;20173;-64
2022/02/22 09:20:23;;;;;;;4.45;1.00;;;;;;;;;;6216343;23;20219;-63
2022/02/22 09:22:49;;;;;;;2.83;1.00;;;;;;;;;;6216277;23;20509;-63
2022/02/22 09:25:16;;;;;;;3.90;1.20;;;;;;;;;;6216176;23;20144;-63
2022/02/22 09:27:42;;;;;;;3.60;0.80;;;;;;;;;;6216514;23;20199;-64
2022/02/22 09:30:10;;;;;;;4.28;1.48;;;;;;;;;;6217418;23;20248;-64
2022/02/22 09:32:35;;;;;;;5.68;1.15;;;;;;;;;;6219488;23;20371;-63
2022/02/22 09:35:01;;;;;;;6.35;1.10;;;;;;;;;;6219639;23;20488;-63
2022/02/22 09:37:28;;;;;;;5.18;1.05;;;;;;;;;;6219656;23;20152;-63
2022/02/22 09:39:53;;;;;;;6.25;1.25;;;;;;;;;;6219476;23;20164;-62
2022/02/22 09:42:19;;;;;;;4.55;1.02;;;;;;;;;;6218221;23;20228;-66
2022/02/22 09:44:45;;;;;;;4.63;1.17;;;;;;;;;;6219305;23;20141;-64
2022/02/22 09:47:11;;;;;;;4.47;0.77;;;;;;;;;;6219577;23;20463;-66
2022/02/22 09:49:37;;;;;;;3.30;1.00;;;;;;;;;;6219678;23;20160;-65
2022/02/22 09:52:04;;;;;;;4.10;0.80;;;;;;;;;;6220006;23;20156;-65
2022/02/22 09:54:30;;;;;;;5.03;0.95;;;;;;;;;;6219864;23;20159;-66
2022/02/22 09:56:56;;;;;;;1.73;0.75;;;;;;;;;;6220001;23;20556;-65
2022/02/22 09:59:24;;;;;;;5.25;0.82;;;;;;;;;;6219659;23;20168;-65
2022/02/22 10:01:51;;;;;;;1.33;0.73;;;;;;;;;;6219656;23;20167;-65
2022/02/22 10:04:17;;;;;;;3.70;0.63;;;;;;;;;;6219407;23;20144;-65
2022/02/22 10:06:43;;;;;;;2.53;0.80;;;;;;;;;;6219782;23;20172;-65
2022/02/22 10:09:09;;;;;;;2.22;0.70;;;;;;;;;;6219379;23;20195;-65
2022/02/22 10:11:46;;;;;;;5.28;1.05;;;;;;;;;;6219045;23;20155;-65
2022/02/22 10:14:20;;;;;;;4.45;1.02;;;;;;;;;;6219505;23;20168;-65
2022/02/22 10:16:46;;;;;;;9.43;1.52;;;;;;;;;;6219225;23;20526;-65
2022/02/22 10:19:15;;;;;;;13.32;2.05;;;;;;;;;;6219009;23;20238;-66
2022/02/22 10:21:42;;;;;;;8.82;1.83;;;;;;;;;;6219158;23;20564;-65
2022/02/22 10:24:11;;;;;;;10.20;2.40;;;;;;;;;;6219222;23;20607;-65
2022/02/22 10:26:37;;;;;;;12.50;2.58;;;;;;;;;;6219078;23;20140;-65
2022/02/22 10:29:17;;;;;;;12.05;2.35;;;;;;;;;;6219156;23;20338;-65
2022/02/22 10:31:43;;;;;;;7.80;1.88;;;;;;;;;;6218780;23;20214;-65
2022/02/22 10:34:09;;;;;;;6.03;1.90;;;;;;;;;;6219013;23;20172;-65
2022/02/22 10:36:40;;;;;;;7.63;1.85;;;;;;;;;;6219042;23;20179;-65
2022/02/22 10:39:12;;;;;;;11.70;1.90;;;;;;;;;;6219568;23;20164;-64
2022/02/22 10:41:42;;;;;;;6.32;1.48;;;;;;;;;;6217898;23;20149;-64
2022/02/22 10:44:10;;;;;;;5.82;1.38;;;;;;;;;;6217883;23;20437;-64
2022/02/22 10:46:37;;;;;;;9.40;2.15;;;;;;;;;;6217458;23;20137;-64
2022/02/22 10:49:12;;;;;;;9.10;1.70;;;;;;;;;;6217708;23;20420;-65
2022/02/22 10:51:42;;;;;;;7.70;1.70;;;;;;;;;;6218178;23;20171;-64
2022/02/22 10:54:09;;;;;;;9.10;1.80;;;;;;;;;;6218427;23;20144;-65
2022/02/22 10:56:36;;;;;;;9.32;1.77;;;;;;;;;;6217890;23;20176;-64
2022/02/22 10:59:03;;;;;;;8.85;1.60;;;;;;;;;;6217347;23;20468;-64
2022/02/22 11:01:29;;;;;;;9.15;1.98;;;;;;;;;;6217266;23;20561;-65
2022/02/22 11:03:55;;;;;;;8.02;1.50;;;;;;;;;;6217712;23;20239;-64
2022/02/22 11:06:22;;;;;;;8.27;1.50;;;;;;;;;;6217785;23;20160;-64
2022/02/22 11:08:48;;;;;;;7.95;1.60;;;;;;;;;;6217514;23;20223;-65
2022/02/22 11:11:20;;;;;;;6.90;1.65;;;;;;;;;;6217362;23;20565;-65
2022/02/22 11:14:01;;;;;;;11.88;1.95;;;;;;;;;;6217356;23;20643;-65
2022/02/22 11:16:37;;;;;;;9.80;1.58;;;;;;;;;;6217625;23;20170;-64
2022/02/22 11:19:12;;;;;;;7.13;1.52;;;;;;;;;;6217298;23;20168;-65
2022/02/22 11:21:37;;;;;;;8.40;0.98;;;;;;;;;;6217056;23;20146;-65
2022/02/22 11:24:05;;;;;;;3.80;0.95;;;;;;;;;;6217430;23;20519;-64
2022/02/22 11:26:43;;;;;;;3.83;1.02;;;;;;;;;;6217097;23;20206;-66
2022/02/22 11:29:09;;;;;;;4.22;0.90;;;;;;;;;;6217388;23;20187;-65
2022/02/22 11:31:35;;;;;;;2.55;1.10;;;;;;;;;;6215595;23;20169;-65
2022/02/22 11:34:02;;;;;;;5.30;1.30;;;;;;;;;;6216991;23;20550;-64
2022/02/22 11:36:30;;;;;;;8.68;1.23;;;;;;;;;;6216850;23;20628;-65
2022/02/22 11:38:56;;;;;;;4.65;1.27;;;;;;;;;;6216984;23;20245;-64
2022/02/22 11:41:24;;;;;;;5.82;1.52;;;;;;;;;;6216904;23;20145;-65
2022/02/22 11:43:51;;;;;;;5.38;1.10;;;;;;;;;;6217011;23;20145;-65
2022/02/22 11:46:17;;;;;;;10.27;1.67;;;;;;;;;;6215306;23;20151;-65
2022/02/22 11:48:43;;;;;;;7.38;1.30;;;;;;;;;;6216932;23;20171;-65
2022/02/22 11:51:10;;;;;;;8.25;1.40;;;;;;;;;;6216769;23;20145;-66
2022/02/22 11:53:37;;;;;;;6.53;1.40;;;;;;;;;;6216508;23;20156;-64
2022/02/22 11:56:04;;;;;;;5.40;1.45;;;;;;;;;;6217058;23;20239;-65
2022/02/22 11:58:31;;;;;;;7.32;1.25;;;;;;;;;;6216914;23;20141;-65
2022/02/22 12:01:04;;;;;;;6.05;1.77;;;;;;;;;;6216771;23;20141;-65
2022/02/22 12:03:44;;;;;;;6.68;1.55;;;;;;;;;;6217343;23;20179;-64
2022/02/22 12:06:10;;;;;;;6.93;1.38;;;;;;;;;;6215707;23;20157;-65
2022/02/22 12:08:41;;;;;;;9.35;1.60;;;;;;;;;;6216929;23;20433;-65
2022/02/22 12:11:08;;;;;;;8.05;1.73;;;;;;;;;;6216524;23;20571;-64
2022/02/22 12:13:42;;;;;;;7.22;1.45;;;;;;;;;;6217013;23;20486;-65
2022/02/22 12:16:15;;;;;;;5.45;1.33;;;;;;;;;;6216746;23;20140;-65
2022/02/22 12:18:45;;;;;;;12.80;2.38;;;;;;;;;;6216854;23;20168;-65
2022/02/22 12:21:11;;;;;;;9.20;2.58;;;;;;;;;;6216506;23;20568;-65
2022/02/22 12:23:38;;;;;;;10.02;1.90;;;;;;;;;;6216787;23;20178;-65
2022/02/22 12:26:05;;;;;;;9.52;2.05;;;;;;;;;;6216584;23;20141;-64
2022/02/22 12:28:31;;;;;;;9.38;2.15;;;;;;;;;;6217011;23;20145;-64
2022/02/22 12:30:58;;;;;;;10.40;2.10;;;;;;;;;;6216771;23;20235;-65
2022/02/22 12:33:31;;;;;;;8.57;2.10;;;;;;;;;;6217197;23;20125;-65
2022/02/22 12:35:57;;;;;;;11.07;1.80;;;;;;;;;;6216580;23;20141;-64
2022/02/22 12:38:24;;;;;;;9.05;2.30;;;;;;;;;;6216126;23;20133;-64
2022/02/22 12:40:52;;;;;;;7.22;1.95;;;;;;;;;;6216587;23;20599;-64
2022/02/22 12:43:18;;;;;;;10.88;1.88;;;;;;;;;;6216269;23;20152;-64
2022/02/22 12:45:46;;;;;;;10.27;2.10;;;;;;;;;;6216466;23;20542;-64
2022/02/22 12:48:13;;;;;;;12.80;2.15;;;;;;;;;;6216213;23;20148;-65
2022/02/22 12:50:38;;;;;;;13.32;2.33;;;;;;;;;;6216538;23;20195;-65
2022/02/22 12:53:05;;;;;;;8.52;1.88;;;;;;;;;;6216634;23;20557;-65
2022/02/22 12:55:31;;;;;;;7.00;1.98;;;;;;;;;;6216675;23;20580;-62
2022/02/22 12:58:07;;;;;;;10.82;2.15;;;;;;;;;;6216457;23;20162;-61
2022/02/22 13:00:33;;;;;;;8.05;1.95;;;;;;;;;;6216591;23;20223;-61
2022/02/22 13:03:05;;;;;;;8.38;2.65;;;;;;;;;;6216171;23;20141;-60
2022/02/22 13:05:31;;;;;;;10.85;1.88;;;;;;;;;;6216604;23;20140;-61
2022/02/22 13:07:58;;;;;;;8.10;1.95;;;;;;;;;;6216638;23;20232;-62
2022/02/22 13:10:24;;;;;;;14.20;2.75;;;;;;;;;;6216944;23;20168;-61
2022/02/22 13:13:00;;;;;;;9.57;2.35;;;;;;;;;;6216782;23;20443;-62
2022/02/22 13:15:26;;;;;;;7.30;1.80;;;;;;;;;;6216796;23;20148;-62
2022/02/22 13:17:54;;;;;;;9.25;1.80;;;;;;;;;;6216067;23;20141;-62
2022/02/22 13:20:20;;;;;;;5.90;1.70;;;;;;;;;;6216512;23;20562;-62
2022/02/22 13:22:46;;;;;;;10.55;2.80;;;;;;;;;;6216623;23;20256;-62
2022/02/22 13:25:12;;;;;;;11.35;1.60;;;;;;;;;;6216316;23;20137;-62
2022/02/22 13:27:39;;;;;;;11.00;2.28;;;;;;;;;;6216823;23;20145;-62
2022/02/22 13:30:06;;;;;;;10.15;2.08;;;;;;;;;;6216675;23;20214;-62
2022/02/22 13:32:33;;;;;;;11.02;2.47;;;;;;;;;;6216047;23;20210;-62
2022/02/22 13:34:59;;;;;;;7.68;1.98;;;;;;;;;;6216070;23;20172;-62
2022/02/22 13:37:39;;;;;;;9.90;2.08;;;;;;;;;;6216351;23;20460;-62
2022/02/22 13:40:05;;;;;;;11.48;2.40;;;;;;;;;;6216215;23;20243;-63
2022/02/22 13:42:31;;;;;;;7.80;1.80;;;;;;;;;;6215845;23;20138;-62
2022/02/22 13:45:01;;;;;;;13.07;2.60;;;;;;;;;;6216266;23;20145;-62
2022/02/22 13:47:30;;;;;;;10.77;2.20;;;;;;;;;;6215870;23;20172;-62
2022/02/22 13:49:56;;;;;;;11.32;2.00;;;;;;;;;;6216147;23;20145;-62
2022/02/22 13:52:22;;;;;;;12.15;1.98;;;;;;;;;;6216024;23;20157;-62
2022/02/22 13:54:49;;;;;;;6.15;1.73;;;;;;;;;;6215886;23;20147;-62
2022/02/22 13:57:15;;;;;;;11.70;2.08;;;;;;;;;;6215992;23;20227;-61
2022/02/22 13:59:43;;;;;;;11.25;2.17;;;;;;;;;;6215920;23;20635;-62
2022/02/22 14:02:09;;;;;;;12.15;2.63;;;;;;;;;;6216224;23;20252;-61
2022/02/22 14:04:37;;;;;;;8.77;2.30;;;;;;;;;;6216130;23;20313;-61
2022/02/22 14:07:15;;;;;;;12.07;2.20;;;;;;;;;;6215801;23;20493;-62
2022/02/22 14:09:41;;;;;;;9.20;1.90;;;;;;;;;;6215742;23;20164;-62
2022/02/22 14:12:08;;;;;;;9.38;2.03;;;;;;;;;;6215884;23;20145;-62
2022/02/22 14:14:34;;;;;;;10.82;2.10;;;;;;;;;;6215726;23;20183;-63
2022/02/22 14:17:00;;;;;;;8.73;2.08;;;;;;;;;;6217755;23;20488;-63
2022/02/22 14:19:26;;;;;;;11.35;2.05;;;;;;;;;;6217625;23;20173;-62
2022/02/22 14:21:52;;;;;;;14.50;2.17;;;;;;;;;;6217767;23;20484;-62
2022/02/22 14:24:21;;;;;;;14.32;2.40;;;;;;;;;;6217622;23;20165;-62
2022/02/22 14:26:46;;;;;;;12.32;2.47;;;;;;;;;;6217832;23;20229;-62
2022/02/22 14:29:12;;;;;;;11.23;2.22;;;;;;;;;;6218551;23;20169;-65
2022/02/22 14:31:38;;;;;;;11.07;1.98;;;;;;;;;;6218508;23;20604;-66
2022/02/22 14:34:05;;;;;;;7.65;2.38;;;;;;;;;;6218473;23;20145;-66
2022/02/22 14:36:31;;;;;;;10.75;2.20;;;;;;;;;;6218479;23;20168;-66